createdAt,value
2022-11-08T00:02:07.298Z,100274.50
2022-11-08T00:04:34.728Z,100251.22
2022-11-08T00:07:20.252Z,100247.66
2022-11-08T00:10:05.631Z,100276.91
2022-11-08T00:12:50.573Z,100273.41
2022-11-08T00:15:17.291Z,100286.69
2022-11-08T00:17:44.140Z,100285.22
2022-11-08T00:20:11.130Z,100279.00
2022-11-08T00:22:37.738Z,100262.25
2022-11-08T00:25:04.549Z,100286.41
2022-11-08T00:27:31.147Z,100282.97
2022-11-08T00:29:57.770Z,100279.63
2022-11-08T00:32:26.131Z,100274.47
2022-11-08T00:34:53.380Z,100261.69
2022-11-08T00:37:21.023Z,100279.09
2022-11-08T00:39:47.587Z,100281.06
2022-11-08T00:42:14.108Z,100283.88
2022-11-08T00:44:40.741Z,100273.44
2022-11-08T00:47:07.336Z,100263.19
2022-11-08T00:49:34.008Z,100276.50
2022-11-08T00:52:00.530Z,100276.69
2022-11-08T00:54:27.229Z,100270.72
2022-11-08T00:56:53.839Z,100272.75
2022-11-08T00:59:20.428Z,100272.91
2022-11-08T01:01:47.941Z,100267.81
2022-11-08T01:04:17.461Z,100265.38
2022-11-08T01:06:44.156Z,100256.13
2022-11-08T01:09:11.153Z,100262.28
2022-11-08T01:11:38.936Z,100263.38
2022-11-08T01:14:05.805Z,100268.78
2022-11-08T01:16:33.878Z,100269.06
2022-11-08T01:19:01.977Z,100274.38
2022-11-08T01:21:29.308Z,100261.44
2022-11-08T01:23:55.977Z,100256.28
2022-11-08T01:26:25.690Z,100260.84
2022-11-08T01:28:52.900Z,100254.94
2022-11-08T01:31:22.587Z,100253.22
2022-11-08T01:33:51.525Z,100247.09
2022-11-08T01:36:24.025Z,100251.63
2022-11-08T01:38:51.029Z,100250.59
2022-11-08T01:41:19.338Z,100248.75
2022-11-08T01:43:51.396Z,100244.28
2022-11-08T01:46:33.363Z,100240.78
2022-11-08T01:49:27.469Z,100239.44
2022-11-08T01:52:12.291Z,100235.31
2022-11-08T01:54:41.968Z,100233.78
2022-11-08T01:57:13.709Z,100224.38
2022-11-08T01:59:42.876Z,100232.34
2022-11-08T02:02:11.482Z,100230.75
2022-11-08T02:04:40.477Z,100224.72
2022-11-08T02:07:08.736Z,100216.97
2022-11-08T02:09:37.564Z,100204.13
2022-11-08T02:12:04.947Z,100215.19
2022-11-08T02:14:32.168Z,100217.69
2022-11-08T02:16:58.737Z,100213.38
2022-11-08T02:19:39.628Z,100211.81
2022-11-08T02:22:28.794Z,100220.63
2022-11-08T02:24:58.405Z,100188.75
2022-11-08T02:27:25.959Z,100212.78
2022-11-08T02:29:54.648Z,100211.19
2022-11-08T02:32:21.796Z,100218.13
2022-11-08T02:34:54.516Z,100223.38
2022-11-08T02:37:21.699Z,100219.84
2022-11-08T02:39:48.403Z,100211.00
2022-11-08T02:42:18.542Z,100204.81
2022-11-08T02:44:46.384Z,100196.91
2022-11-08T02:47:13.629Z,100200.06
2022-11-08T02:49:40.642Z,100197.38
2022-11-08T02:52:07.465Z,100199.94
2022-11-08T02:54:34.646Z,100176.59
2022-11-08T02:57:01.128Z,100184.13
2022-11-08T02:59:27.658Z,100191.78
2022-11-08T03:01:54.425Z,100168.53
2022-11-08T03:04:21.037Z,100189.34
2022-11-08T03:06:47.788Z,100187.69
2022-11-08T03:09:14.374Z,100179.88
2022-11-08T03:11:40.984Z,100188.66
2022-11-08T03:14:07.485Z,100186.06
2022-11-08T03:16:34.054Z,100154.13
2022-11-08T03:19:00.593Z,100170.25
2022-11-08T03:21:27.079Z,100154.81
2022-11-08T03:23:53.613Z,100181.44
2022-11-08T03:26:20.252Z,100176.09
2022-11-08T03:28:46.765Z,100173.38
2022-11-08T03:31:13.317Z,100169.09
2022-11-08T03:33:39.882Z,100164.63
2022-11-08T03:36:06.599Z,100149.78
2022-11-08T03:38:33.145Z,100124.03
2022-11-08T03:40:59.672Z,100132.75
2022-11-08T03:43:26.649Z,100156.72
2022-11-08T03:45:53.250Z,100151.56
2022-11-08T03:48:20.276Z,100145.28
2022-11-08T03:50:47.324Z,100146.22
2022-11-08T03:53:13.866Z,100142.03
2022-11-08T03:55:40.334Z,100147.44
2022-11-08T03:58:06.913Z,100148.63
2022-11-08T04:00:33.396Z,100148.06
2022-11-08T04:03:04.012Z,100158.75
2022-11-08T04:05:32.234Z,100151.09
2022-11-08T04:08:00.277Z,100144.31
2022-11-08T04:10:26.888Z,100121.84
2022-11-08T04:13:11.999Z,100131.28
2022-11-08T04:15:38.791Z,100129.63
2022-11-08T04:18:24.273Z,100129.00
2022-11-08T04:21:09.504Z,100119.88
2022-11-08T04:23:36.924Z,100123.69
2022-11-08T04:26:08.501Z,100117.72
2022-11-08T04:28:37.160Z,100106.44
2022-11-08T04:31:15.578Z,100083.16
2022-11-08T04:33:42.641Z,100100.41
2022-11-08T04:36:12.170Z,100099.75
2022-11-08T04:38:38.859Z,100087.72
2022-11-08T04:41:07.636Z,100090.34
2022-11-08T04:43:34.514Z,100076.84
2022-11-08T04:46:06.775Z,100101.06
2022-11-08T04:48:33.778Z,100095.06
2022-11-08T04:51:08.089Z,100087.28
2022-11-08T04:53:34.841Z,100097.00
2022-11-08T04:56:03.346Z,100093.78
2022-11-08T04:58:34.107Z,100099.81
2022-11-08T05:01:02.218Z,100094.84
2022-11-08T05:03:29.844Z,100090.72
2022-11-08T05:05:56.437Z,100094.50
2022-11-08T05:08:23.021Z,100060.03
2022-11-08T05:10:49.548Z,100079.09
2022-11-08T05:13:16.060Z,100059.19
2022-11-08T05:15:42.646Z,100081.81
2022-11-08T05:18:09.275Z,100072.16
2022-11-08T05:20:54.554Z,100066.16
2022-11-08T05:23:24.158Z,100065.41
2022-11-08T05:25:54.673Z,100049.72
2022-11-08T05:28:21.851Z,100060.25
2022-11-08T05:30:55.996Z,100069.97
2022-11-08T05:33:23.544Z,100060.34
2022-11-08T05:35:50.145Z,100059.50
2022-11-08T05:38:17.370Z,100060.34
2022-11-08T05:40:44.320Z,100043.03
2022-11-08T05:43:11.393Z,100050.75
2022-11-08T05:45:38.393Z,100055.19
2022-11-08T05:48:05.754Z,100045.94
2022-11-08T05:50:34.725Z,100057.97
2022-11-08T05:53:01.832Z,100057.22
2022-11-08T05:55:28.564Z,100049.13
2022-11-08T05:57:55.185Z,100022.25
2022-11-08T06:00:22.130Z,100036.22
2022-11-08T06:02:48.769Z,100048.66
2022-11-08T06:05:15.516Z,100051.44
2022-11-08T06:07:42.075Z,100059.38
2022-11-08T06:10:10.159Z,100057.66
2022-11-08T06:12:38.243Z,100044.66
2022-11-08T06:15:06.779Z,100045.19
2022-11-08T06:17:33.724Z,100044.22
2022-11-08T06:20:00.325Z,100046.09
2022-11-08T06:22:30.782Z,100032.47
2022-11-08T06:24:57.328Z,100031.66
2022-11-08T06:27:24.026Z,100062.72
2022-11-08T06:29:50.696Z,100068.84
2022-11-08T06:32:17.339Z,100056.69
2022-11-08T06:34:46.133Z,100053.13
2022-11-08T06:37:13.654Z,100046.91
2022-11-08T06:39:40.949Z,100048.00
2022-11-08T06:42:07.757Z,100031.63
2022-11-08T06:44:34.498Z,100047.19
2022-11-08T06:47:01.185Z,100057.59
2022-11-08T06:49:27.790Z,100050.50
2022-11-08T06:51:54.404Z,100062.72
2022-11-08T06:54:24.462Z,100063.38
2022-11-08T06:56:55.729Z,100051.03
2022-11-08T06:59:23.267Z,100027.63
2022-11-08T07:01:50.039Z,100038.69
2022-11-08T07:04:16.713Z,100060.84
2022-11-08T07:06:43.327Z,100061.41
2022-11-08T07:09:09.967Z,100063.94
2022-11-08T07:11:36.514Z,100057.13
2022-11-08T07:14:03.154Z,100074.06
2022-11-08T07:16:29.736Z,100071.38
2022-11-08T07:18:56.359Z,100079.22
2022-11-08T07:21:23.358Z,100046.44
2022-11-08T07:23:50.485Z,100061.06
2022-11-08T07:26:17.098Z,100075.63
2022-11-08T07:28:43.747Z,100075.66
2022-11-08T07:31:11.231Z,100071.31
2022-11-08T07:33:37.796Z,100082.59
2022-11-08T07:36:04.640Z,100086.09
2022-11-08T07:38:31.409Z,100090.25
2022-11-08T07:40:59.315Z,100088.19
2022-11-08T07:43:27.725Z,100076.97
2022-11-08T07:46:00.104Z,100087.66
2022-11-08T07:48:30.996Z,100088.53
2022-11-08T07:50:57.813Z,100088.31
2022-11-08T07:53:24.820Z,100076.22
2022-11-08T07:55:51.412Z,100093.88
2022-11-08T07:58:17.977Z,100075.50
2022-11-08T08:00:45.643Z,100084.88
2022-11-08T08:03:14.503Z,100108.13
2022-11-08T08:05:43.636Z,100107.06
2022-11-08T08:08:14.225Z,100099.88
2022-11-08T08:10:41.611Z,100099.66
2022-11-08T08:13:09.079Z,100101.97
2022-11-08T08:15:36.049Z,100090.78
2022-11-08T08:18:05.169Z,100093.63
2022-11-08T08:20:32.652Z,100104.81
2022-11-08T08:23:00.236Z,100101.44
2022-11-08T08:25:28.536Z,100107.47
2022-11-08T08:27:59.790Z,100097.66
2022-11-08T08:30:26.763Z,100094.28
2022-11-08T08:33:26.986Z,100110.25
2022-11-08T08:35:48.763Z,100101.84
2022-11-08T08:38:15.430Z,100102.13
2022-11-08T08:40:42.179Z,100101.31
2022-11-08T08:43:08.700Z,100103.22
2022-11-08T08:45:35.937Z,100090.88
2022-11-08T08:48:02.905Z,100094.84
2022-11-08T08:50:31.131Z,100092.69
2022-11-08T08:52:59.581Z,100087.06
2022-11-08T08:55:26.270Z,100097.16
2022-11-08T08:57:52.866Z,100076.28
2022-11-08T09:03:09.769Z,100088.72
2022-11-08T09:05:37.123Z,100091.28
2022-11-08T09:08:04.037Z,100092.66
2022-11-08T09:10:30.843Z,100088.50
2022-11-08T09:12:57.407Z,100101.78
2022-11-08T09:15:23.986Z,100114.84
2022-11-08T09:17:54.050Z,100107.69
2022-11-08T09:20:20.639Z,100113.69
2022-11-08T09:22:47.175Z,100096.50
2022-11-08T09:25:13.947Z,100077.84
2022-11-08T09:27:40.609Z,100102.16
2022-11-08T09:30:08.110Z,100090.50
2022-11-08T09:32:59.244Z,100103.13
2022-11-08T09:35:22.147Z,100102.91
2022-11-08T09:37:49.960Z,100105.94
2022-11-08T09:40:25.892Z,100105.69
2022-11-08T09:43:13.084Z,100102.72
2022-11-08T09:45:47.887Z,100095.50
2022-11-08T09:48:26.054Z,100084.59
2022-11-08T09:50:54.725Z,100080.16
2022-11-08T09:53:27.003Z,100077.94
2022-11-08T09:56:06.088Z,100068.44
2022-11-08T09:58:54.338Z,100073.66
2022-11-08T10:01:26.828Z,100083.75
2022-11-08T10:03:57.711Z,100098.06
2022-11-08T10:06:47.284Z,100095.72
2022-11-08T10:09:50.399Z,100094.56
2022-11-08T10:12:36.064Z,100076.97
2022-11-08T10:15:24.857Z,100068.47
2022-11-08T10:17:51.512Z,100074.28
2022-11-08T10:20:32.590Z,100066.91
2022-11-08T10:23:24.043Z,100063.84
2022-11-08T10:26:14.631Z,100053.53
2022-11-08T10:29:05.248Z,100044.88
2022-11-08T10:31:34.067Z,100034.22
2022-11-08T10:34:03.068Z,100052.19
2022-11-08T10:36:40.679Z,100048.88
2022-11-08T10:39:09.804Z,100065.38
2022-11-08T10:41:50.509Z,100043.16
2022-11-08T10:44:20.904Z,100061.00
2022-11-08T10:46:58.018Z,100057.13
2022-11-08T10:49:27.287Z,100059.78
2022-11-08T10:51:59.702Z,100050.00
2022-11-08T10:54:51.553Z,100067.06
2022-11-08T10:57:23.912Z,100046.84
2022-11-08T10:59:50.852Z,100046.94
2022-11-08T11:02:29.141Z,100049.59
2022-11-08T11:05:15.621Z,100049.56
2022-11-08T11:07:46.075Z,100050.81
2022-11-08T11:10:18.418Z,100041.34
2022-11-08T11:12:50.899Z,100036.56
2022-11-08T11:15:18.027Z,100031.66
2022-11-08T11:17:46.468Z,100038.69
2022-11-08T11:20:22.338Z,100042.34
2022-11-08T11:22:50.076Z,100040.56
2022-11-08T11:25:19.790Z,100029.41
2022-11-08T11:27:53.905Z,100017.50
2022-11-08T11:30:29.250Z,100010.72
2022-11-08T11:33:25.379Z,100026.31
2022-11-08T11:35:58.489Z,100001.03
2022-11-08T11:38:42.035Z,100010.22
2022-11-08T11:41:39.955Z,100019.16
2022-11-08T11:44:25.421Z,100017.13
2022-11-08T11:47:02.012Z,100003.88
2022-11-08T11:49:30.593Z,99998.19
2022-11-08T11:51:58.086Z,100011.63
2022-11-08T11:54:29.991Z,100001.75
2022-11-08T11:57:14.987Z,100000.78
2022-11-08T12:00:05.130Z,99992.72
2022-11-08T12:02:46.712Z,99985.06
2022-11-08T12:05:45.764Z,99993.38
2022-11-08T12:08:34.191Z,99984.84
2022-11-08T12:11:31.364Z,99988.13
2022-11-08T12:14:19.330Z,99991.56
2022-11-08T12:16:56.163Z,99995.28
2022-11-08T12:19:38.333Z,99987.63
2022-11-08T12:22:45.296Z,99961.09
2022-11-08T12:25:30.472Z,99978.91
2022-11-08T12:28:18.198Z,99979.03
2022-11-08T12:30:47.917Z,99981.06
2022-11-08T12:33:26.609Z,99974.03
2022-11-08T12:36:22.494Z,99981.06
2022-11-08T12:39:07.497Z,99969.28
2022-11-08T12:41:53.435Z,99948.19
2022-11-08T12:44:50.908Z,99959.00
2022-11-08T12:47:40.169Z,99966.44
2022-11-08T12:50:09.592Z,99957.94
2022-11-08T12:52:54.880Z,99959.75
2022-11-08T12:55:28.739Z,99955.38
2022-11-08T12:57:58.457Z,99950.81
2022-11-08T13:00:27.454Z,99946.63
2022-11-08T13:03:12.167Z,99943.53
2022-11-08T13:05:44.745Z,99938.63
2022-11-08T13:08:30.597Z,99916.88
2022-11-08T13:11:05.557Z,99933.16
2022-11-08T13:13:47.089Z,99940.84
2022-11-08T13:16:16.948Z,99930.28
2022-11-08T13:18:54.116Z,99927.94
2022-11-08T13:21:38.551Z,99903.03
2022-11-08T13:24:14.127Z,99905.50
2022-11-08T13:26:53.738Z,99925.38
2022-11-08T13:29:25.661Z,99902.81
2022-11-08T13:32:22.670Z,99913.78
2022-11-08T13:35:34.092Z,99921.25
2022-11-08T13:38:19.850Z,99920.41
2022-11-08T13:41:02.762Z,99919.44
2022-11-08T13:43:31.473Z,99909.50
2022-11-08T13:46:27.748Z,99917.28
2022-11-08T13:49:05.197Z,99919.00
2022-11-08T13:51:42.762Z,99894.72
2022-11-08T13:54:21.161Z,99919.03
2022-11-08T13:56:51.826Z,99928.94
2022-11-08T13:59:30.106Z,99927.22
2022-11-08T14:01:58.669Z,99930.53
2022-11-08T14:04:30.368Z,99914.22
2022-11-08T14:07:06.797Z,99911.88
2022-11-08T14:09:35.135Z,99913.66
2022-11-08T14:12:41.660Z,99905.78
2022-11-08T14:15:31.932Z,99918.34
2022-11-08T14:18:04.934Z,99899.28
2022-11-08T14:20:41.939Z,99913.41
2022-11-08T14:23:14.151Z,99915.22
2022-11-08T14:25:41.028Z,99903.59
2022-11-08T14:28:25.295Z,99914.47
2022-11-08T14:30:52.228Z,99903.31
2022-11-08T14:33:27.265Z,99891.31
2022-11-08T14:35:53.741Z,99918.59
2022-11-08T14:38:20.699Z,99916.16
2022-11-08T14:40:50.934Z,99898.13
2022-11-08T14:43:18.520Z,99900.03
2022-11-08T14:45:45.700Z,99898.69
2022-11-08T14:48:34.942Z,99876.81
2022-11-08T14:51:03.664Z,99894.91
2022-11-08T14:53:44.151Z,99898.56
2022-11-08T14:56:23.721Z,99894.31
2022-11-08T14:58:51.948Z,99899.84
2022-11-08T15:01:22.728Z,99897.50
2022-11-08T15:03:57.051Z,99892.38
2022-11-08T15:06:32.542Z,99877.91
2022-11-08T15:09:00.434Z,99890.16
2022-11-08T15:11:35.912Z,99892.16
2022-11-08T15:14:08.315Z,99883.63
2022-11-08T15:16:49.887Z,99892.06
2022-11-08T15:19:34.315Z,99887.91
2022-11-08T15:22:04.446Z,99890.03
2022-11-08T15:24:37.678Z,99897.16
2022-11-08T15:27:10.052Z,99894.59
2022-11-08T15:29:50.512Z,99889.72
2022-11-08T15:32:18.647Z,99888.84
2022-11-08T15:34:45.585Z,99884.50
2022-11-08T15:37:23.959Z,99887.34
2022-11-08T15:39:51.361Z,99881.38
2022-11-08T15:42:18.070Z,99875.09
2022-11-08T15:45:05.068Z,99872.03
2022-11-08T15:47:42.182Z,99872.88
2022-11-08T15:50:29.009Z,99878.41
2022-11-08T15:52:58.269Z,99866.47
2022-11-08T15:55:30.725Z,99872.53
2022-11-08T15:57:58.635Z,99864.66
2022-11-08T16:00:28.374Z,99859.97
2022-11-08T16:02:55.496Z,99853.59
2022-11-08T16:05:24.733Z,99877.66
2022-11-08T16:07:51.961Z,99885.84
2022-11-08T16:10:27.172Z,99877.44
2022-11-08T16:12:53.958Z,99891.69
2022-11-08T16:15:24.681Z,99891.88
2022-11-08T16:17:51.579Z,99891.97
2022-11-08T16:20:47.690Z,99893.97
2022-11-08T16:23:14.741Z,99900.47
2022-11-08T16:25:46.545Z,99887.59
2022-11-08T16:28:27.787Z,99873.50
2022-11-08T16:30:54.531Z,99888.06
2022-11-08T16:33:23.619Z,99884.75
2022-11-08T16:35:51.399Z,99881.56
2022-11-08T16:38:23.966Z,99855.78
2022-11-08T16:40:50.791Z,99873.00
2022-11-08T16:43:17.380Z,99868.72
2022-11-08T16:46:04.335Z,99865.09
2022-11-08T16:48:30.724Z,99864.69
2022-11-08T16:51:03.945Z,99858.63
2022-11-08T16:53:30.564Z,99836.47
2022-11-08T16:55:57.931Z,99838.28
2022-11-08T16:58:25.911Z,99836.00
2022-11-08T17:00:52.775Z,99852.31
2022-11-08T17:03:22.567Z,99857.72
2022-11-08T17:05:49.363Z,99857.16
2022-11-08T17:08:17.110Z,99856.59
2022-11-08T17:10:44.184Z,99865.59
2022-11-08T17:13:14.275Z,99841.44
2022-11-08T17:15:40.754Z,99865.06
2022-11-08T17:18:07.652Z,99872.94
2022-11-08T17:20:34.363Z,99878.34
2022-11-08T17:23:01.126Z,99870.56
2022-11-08T17:25:27.690Z,99862.78
2022-11-08T17:27:54.270Z,99843.47
2022-11-08T17:30:26.347Z,99851.44
2022-11-08T17:32:53.533Z,99876.34
2022-11-08T17:35:20.248Z,99877.22
2022-11-08T17:37:46.876Z,99870.31
2022-11-08T17:40:13.420Z,99880.09
2022-11-08T17:42:40.095Z,99859.69
2022-11-08T17:45:08.863Z,99879.63
2022-11-08T17:47:36.395Z,99873.63
2022-11-08T17:50:03.984Z,99864.38
2022-11-08T17:52:30.504Z,99862.19
2022-11-08T17:54:57.055Z,99870.63
2022-11-08T17:57:23.612Z,99865.09
2022-11-08T17:59:50.485Z,99888.44
2022-11-08T18:02:17.341Z,99885.13
2022-11-08T18:04:44.250Z,99871.66
2022-11-08T18:07:10.952Z,99891.47
2022-11-08T18:09:37.683Z,99889.97
2022-11-08T18:12:04.516Z,99889.97
2022-11-08T18:14:31.173Z,99888.44
2022-11-08T18:16:57.893Z,99888.63
2022-11-08T18:19:24.633Z,99883.50
2022-11-08T18:21:51.219Z,99887.13
2022-11-08T18:24:18.003Z,99863.41
2022-11-08T18:26:44.550Z,99886.66
2022-11-08T18:29:11.156Z,99892.06
2022-11-08T18:31:37.715Z,99886.16
2022-11-08T18:34:04.505Z,99881.97
2022-11-08T18:36:31.520Z,99892.69
2022-11-08T18:39:02.561Z,99891.28
2022-11-08T18:41:31.713Z,99902.16
2022-11-08T18:43:59.859Z,99899.50
2022-11-08T18:46:28.358Z,99904.91
2022-11-08T18:48:55.326Z,99896.16
2022-11-08T18:51:23.640Z,99886.72
2022-11-08T18:53:52.461Z,99869.28
2022-11-08T18:56:19.767Z,99876.09
2022-11-08T18:58:46.653Z,99883.22
2022-11-08T19:01:14.335Z,99879.00
2022-11-08T19:03:41.462Z,99863.06
2022-11-08T19:06:08.512Z,99882.59
2022-11-08T19:08:36.648Z,99880.63
2022-11-08T19:11:08.372Z,99877.22
2022-11-08T19:13:37.119Z,99873.44
2022-11-08T19:16:10.262Z,99868.16
2022-11-08T19:18:37.678Z,99876.19
2022-11-08T19:21:14.859Z,99891.16
2022-11-08T19:23:42.411Z,99887.66
2022-11-08T19:26:14.961Z,99889.16
2022-11-08T19:28:44.002Z,99890.94
2022-11-08T19:31:11.119Z,99887.44
2022-11-08T19:33:37.690Z,99868.66
2022-11-08T19:36:07.518Z,99890.22
2022-11-08T19:38:35.474Z,99868.06
2022-11-08T19:41:08.244Z,99881.50
2022-11-08T19:43:36.369Z,99885.94
2022-11-08T19:46:04.837Z,99874.22
2022-11-08T19:48:32.356Z,99877.38
2022-11-08T19:51:05.010Z,99872.06
2022-11-08T19:53:32.775Z,99862.41
2022-11-08T19:56:05.331Z,99850.25
2022-11-08T19:58:34.650Z,99854.44
2022-11-08T20:01:09.619Z,99862.22
2022-11-08T20:03:36.239Z,99852.56
2022-11-08T20:06:03.279Z,99864.03
2022-11-08T20:08:31.375Z,99860.59
2022-11-08T20:10:59.091Z,99866.94
2022-11-08T20:13:26.523Z,99874.81
2022-11-08T20:15:53.433Z,99871.28
2022-11-08T20:18:20.169Z,99875.84
2022-11-08T20:20:47.291Z,99875.28
2022-11-08T20:23:16.260Z,99877.16
2022-11-08T20:25:42.986Z,99874.59
2022-11-08T20:28:09.560Z,99882.72
2022-11-08T20:30:36.230Z,99874.66
2022-11-08T20:33:02.773Z,99891.13
2022-11-08T20:35:29.358Z,99897.41
2022-11-08T20:37:58.952Z,99889.63
2022-11-08T20:40:26.644Z,99891.31
2022-11-08T20:42:53.180Z,99890.38
2022-11-08T20:45:19.734Z,99882.34
2022-11-08T20:47:48.281Z,99888.28
2022-11-08T20:50:15.371Z,99883.94
2022-11-08T20:52:41.917Z,99858.91
2022-11-08T20:55:08.885Z,99882.81
2022-11-08T20:57:35.428Z,99881.88
2022-11-08T21:00:13.072Z,99884.63
2022-11-08T21:02:40.625Z,99892.31
2022-11-08T21:05:07.414Z,99891.44
2022-11-08T21:08:01.711Z,99892.91
2022-11-08T21:10:41.534Z,99899.78
2022-11-08T21:13:07.275Z,99901.03
2022-11-08T21:15:33.853Z,99905.41
2022-11-08T21:18:00.378Z,99907.97
2022-11-08T21:20:27.046Z,99908.03
2022-11-08T21:22:53.559Z,99900.91
2022-11-08T21:25:21.264Z,99914.72
2022-11-08T21:27:47.843Z,99918.41
2022-11-08T21:30:14.396Z,99913.41
2022-11-08T21:32:40.968Z,99914.34
2022-11-08T21:35:07.852Z,99919.72
2022-11-08T21:37:34.497Z,99914.75
2022-11-08T21:40:01.038Z,99921.94
2022-11-08T21:42:27.566Z,99907.28
2022-11-08T21:44:54.132Z,99925.19
2022-11-08T21:47:20.679Z,99910.22
2022-11-08T21:49:48.215Z,99920.50
2022-11-08T21:52:15.021Z,99919.56
2022-11-08T21:54:41.546Z,99904.94
2022-11-08T21:57:08.065Z,99915.09
2022-11-08T21:59:34.657Z,99914.25
2022-11-08T22:02:01.404Z,99923.91
2022-11-08T22:04:27.928Z,99928.25
2022-11-08T22:06:54.661Z,99922.84
2022-11-08T22:09:21.328Z,99928.06
2022-11-08T22:11:47.956Z,99922.75
2022-11-08T22:14:14.525Z,99901.50
2022-11-08T22:16:41.332Z,99912.34
2022-11-08T22:19:08.509Z,99912.25
2022-11-08T22:21:38.330Z,99907.25
2022-11-08T22:24:12.394Z,99913.31
2022-11-08T22:26:40.368Z,99917.75
2022-11-08T22:29:07.431Z,99917.94
2022-11-08T22:31:34.402Z,99915.19
2022-11-08T22:34:01.315Z,99915.97
2022-11-08T22:36:28.507Z,99914.03
2022-11-08T22:38:55.300Z,99916.59
2022-11-08T22:41:23.002Z,99908.00
2022-11-08T22:43:49.873Z,99920.03
2022-11-08T22:46:17.171Z,99924.47
2022-11-08T22:48:45.156Z,99894.31
2022-11-08T22:51:12.474Z,99916.34
2022-11-08T22:53:39.171Z,99926.00
2022-11-08T22:56:10.695Z,99910.09
2022-11-08T22:58:38.600Z,99906.59
2022-11-08T23:01:05.463Z,99901.47
2022-11-08T23:03:32.066Z,99910.19
2022-11-08T23:05:58.700Z,99918.16
2022-11-08T23:08:26.717Z,99919.00
2022-11-08T23:11:12.066Z,99912.16
2022-11-08T23:13:57.699Z,99901.16
2022-11-08T23:16:37.893Z,99925.06
2022-11-08T23:19:33.595Z,99896.25
2022-11-08T23:22:19.503Z,99916.78
2022-11-08T23:24:46.075Z,99889.16
2022-11-08T23:27:33.329Z,99903.38
2022-11-08T23:30:18.978Z,99893.63
2022-11-08T23:32:48.462Z,99890.13
2022-11-08T23:35:16.280Z,99887.78
2022-11-08T23:37:42.908Z,99905.31
2022-11-08T23:40:30.148Z,99876.84
2022-11-08T23:43:32.121Z,99886.81
2022-11-08T23:46:08.083Z,99849.94
2022-11-08T23:48:35.738Z,99886.44
2022-11-08T23:51:02.335Z,99885.59
2022-11-08T23:53:29.545Z,99857.16
2022-11-08T23:55:56.909Z,99861.63
2022-11-08T23:58:24.748Z,99866.84
